Time;durP1;ratioP1;P1;durP2;ratioP2;P2;SDS_P1;SDS_P2;PMS_P1;PMS_P2;Temp;Humidity;BMP_temperature;BMP_pressure;BME280_temperature;BME280_humidity;BME280_pressure;Samples;Min_cycle;Max_cycle;Signal;HPM_P1;HPM_P2
2022/11/28 09:08:57;;;;;;;10.98;8.38;;;;;;;;;;6094695;23;20021;-81
2022/11/28 09:39:39;;;;;;;6.70;5.10;;;;;;;;;;6123406;23;20020;-82
2022/11/28 09:42:20;;;;;;;7.30;5.45;;;;;;;;;;6127010;23;20034;-85
2022/11/28 09:44:53;;;;;;;5.82;4.78;;;;;;;;;;6127238;23;20010;-84
2022/11/28 09:47:26;;;;;;;10.07;4.80;;;;;;;;;;6126552;23;20006;-81
2022/11/28 09:49:57;;;;;;;8.00;4.80;;;;;;;;;;6126841;23;20017;-82
2022/11/28 09:52:40;;;;;;;5.65;4.32;;;;;;;;;;6126707;23;20009;-82
2022/11/28 09:55:24;;;;;;;6.60;4.47;;;;;;;;;;6126695;23;20033;-82
2022/11/28 09:57:51;;;;;;;4.75;3.90;;;;;;;;;;6126376;23;20422;-82
2022/11/28 10:00:37;;;;;;;6.95;4.20;;;;;;;;;;6126688;23;20006;-83
2022/11/28 10:03:15;;;;;;;5.93;4.20;;;;;;;;;;6127295;23;20014;-82
2022/11/28 10:06:02;;;;;;;7.57;4.60;;;;;;;;;;6128016;23;20002;-82
2022/11/28 10:08:49;;;;;;;7.50;4.35;;;;;;;;;;6128550;23;20078;-82
2022/11/28 10:11:46;;;;;;;6.57;4.90;;;;;;;;;;6128551;23;20002;-81
2022/11/28 10:14:33;;;;;;;6.82;4.70;;;;;;;;;;6094897;23;20016;-81
2022/11/28 10:16:59;;;;;;;6.20;4.68;;;;;;;;;;6128456;23;20073;-82
2022/11/28 10:19:53;;;;;;;8.02;5.13;;;;;;;;;;6128321;23;20142;-82
2022/11/28 10:22:29;;;;;;;6.82;4.93;;;;;;;;;;6128527;23;20013;-82
2022/11/28 10:24:59;;;;;;;5.90;4.82;;;;;;;;;;6129177;23;20957;-82
2022/11/28 10:27:34;;;;;;;6.00;4.82;;;;;;;;;;6129219;23;20422;-82
2022/11/28 10:30:14;;;;;;;5.22;4.07;;;;;;;;;;6128447;23;20426;-82
2022/11/28 10:32:43;;;;;;;7.50;5.22;;;;;;;;;;6126654;23;20034;-80
2022/11/28 10:35:36;;;;;;;6.53;4.45;;;;;;;;;;6128130;23;20013;-81
2022/11/28 10:38:05;;;;;;;6.85;5.38;;;;;;;;;;6129626;23;20488;-84
2022/11/28 10:40:49;;;;;;;5.72;4.68;;;;;;;;;;6127088;23;20006;-83
2022/11/28 10:43:39;;;;;;;9.30;5.07;;;;;;;;;;6126773;23;20009;-81
2022/11/28 10:46:10;;;;;;;5.85;4.55;;;;;;;;;;6126539;23;20033;-81
2022/11/28 10:48:52;;;;;;;6.07;4.85;;;;;;;;;;6128161;23;20396;-81
2022/11/28 10:51:42;;;;;;;7.20;4.63;;;;;;;;;;6128169;23;20001;-83
2022/11/28 10:54:26;;;;;;;;;;;;;;;;;;6128580;23;20373;-82
2022/11/28 10:57:05;;;;;;;6.25;4.72;;;;;;;;;;6128587;23;19939;-83
2022/11/28 10:59:49;;;;;;;6.10;5.18;;;;;;;;;;6128150;23;20008;-83
2022/11/28 11:02:44;;;;;;;7.70;5.65;;;;;;;;;;6128012;23;20006;-83
2022/11/28 11:05:17;;;;;;;6.43;5.18;;;;;;;;;;6127942;23;20053;-83
2022/11/28 11:07:49;;;;;;;8.68;4.63;;;;;;;;;;6126496;23;20010;-82
2022/11/28 11:10:18;;;;;;;6.78;4.82;;;;;;;;;;6127985;23;20401;-83
2022/11/28 11:12:44;;;;;;;5.97;4.72;;;;;;;;;;6128318;23;20060;-82
2022/11/28 11:15:34;;;;;;;6.47;5.07;;;;;;;;;;6128477;23;20009;-80
2022/11/28 11:18:03;;;;;;;;;;;;;;;;;;6120983;23;20426;-77
2022/11/28 11:20:38;;;;;;;6.45;4.05;;;;;;;;;;6128098;23;20206;-80
2022/11/28 11:23:18;;;;;;;8.38;4.50;;;;;;;;;;6127918;23;20333;-79
2022/11/28 11:25:48;;;;;;;5.75;4.15;;;;;;;;;;6127989;23;20005;-83
2022/11/28 11:28:40;;;;;;;5.95;4.15;;;;;;;;;;6128207;23;20072;-81
2022/11/28 11:31:18;;;;;;;6.70;4.72;;;;;;;;;;6128228;23;20006;-78
2022/11/28 11:33:44;;;;;;;30.90;18.05;;;;;;;;;;6127729;23;20078;-78
2022/11/28 11:36:28;;;;;;;31.42;20.15;;;;;;;;;;6127649;23;20033;-79
2022/11/28 11:39:11;;;;;;;13.52;7.18;;;;;;;;;;6127873;23;20014;-80
2022/11/28 11:41:42;;;;;;;8.02;6.80;;;;;;;;;;6127691;23;20009;-79
2022/11/28 11:44:14;;;;;;;7.35;5.25;;;;;;;;;;6127620;23;20429;-78
2022/11/28 11:46:51;;;;;;;7.05;5.15;;;;;;;;;;6127563;23;20176;-83
2022/11/28 11:49:31;;;;;;;6.93;5.22;;;;;;;;;;6128209;23;20032;-79
2022/11/28 11:52:00;;;;;;;9.80;6.13;;;;;;;;;;6101947;23;20070;-79
2022/11/28 11:54:26;;;;;;;7.75;6.18;;;;;;;;;;6127645;23;20006;-76
2022/11/28 11:56:51;;;;;;;6.93;4.90;;;;;;;;;;6127709;23;20012;-77
2022/11/28 11:59:27;;;;;;;7.80;5.00;;;;;;;;;;6127523;23;20006;-78
2022/11/28 12:01:59;;;;;;;6.80;5.18;;;;;;;;;;6125822;23;20354;-77
2022/11/28 12:04:40;;;;;;;6.75;4.90;;;;;;;;;;6127460;23;20073;-78
2022/11/28 12:07:20;;;;;;;6.75;5.40;;;;;;;;;;6127576;23;20009;-78
2022/11/28 12:09:48;;;;;;;23.10;18.75;;;;;;;;;;6127371;23;20002;-78
2022/11/28 12:12:21;;;;;;;23.15;18.75;;;;;;;;;;6127367;23;20002;-80
2022/11/28 12:14:48;;;;;;;19.98;17.90;;;;;;;;;;6127458;23;20017;-78
2022/11/28 12:17:56;;;;;;;8.60;6.20;;;;;;;;;;6127504;23;20077;-80
2022/11/28 12:20:37;;;;;;;6.53;5.30;;;;;;;;;;6127078;23;20010;-80
2022/11/28 12:23:08;;;;;;;5.88;4.75;;;;;;;;;;6127681;23;20006;-80
2022/11/28 12:25:53;;;;;;;7.78;4.63;;;;;;;;;;6127146;23;20030;-78
2022/11/28 12:28:40;;;;;;;8.85;5.30;;;;;;;;;;6127182;23;20333;-78
2022/11/28 12:31:25;;;;;;;5.25;4.45;;;;;;;;;;6126881;23;20010;-79
2022/11/28 12:34:22;;;;;;;8.35;4.78;;;;;;;;;;6127034;23;20010;-81
2022/11/28 12:37:17;;;;;;;7.35;4.97;;;;;;;;;;6126903;23;20012;-81
2022/11/28 12:39:57;;;;;;;9.82;6.38;;;;;;;;;;6115433;23;20022;-80
2022/11/28 12:42:33;;;;;;;14.45;10.52;;;;;;;;;;6125518;23;20013;-81
2022/11/28 12:45:05;;;;;;;10.32;8.23;;;;;;;;;;6127018;23;20006;-81
2022/11/28 18:14:42;;;;;;;6.45;4.93;;;;;;;;;;6149367;23;20160;-87
2022/11/28 18:17:07;;;;;;;5.00;4.28;;;;;;;;;;6156265;23;20078;-85
2022/11/28 18:19:33;;;;;;;8.07;4.93;;;;;;;;;;6156784;23;20029;-85
2022/11/28 18:21:59;;;;;;;10.68;5.25;;;;;;;;;;6155982;23;20009;-81
2022/11/28 18:24:24;;;;;;;8.63;5.90;;;;;;;;;;6155955;23;20080;-85
2022/11/28 18:26:49;;;;;;;7.80;5.95;;;;;;;;;;6157756;23;20043;-80
2022/11/28 18:29:15;;;;;;;12.00;7.82;;;;;;;;;;6157970;23;20036;-81
2022/11/28 18:31:41;;;;;;;18.17;10.60;;;;;;;;;;6158089;23;20001;-83
2022/11/28 18:34:08;;;;;;;11.95;8.13;;;;;;;;;;6157808;23;20009;-83
2022/11/28 18:36:35;;;;;;;33.70;15.07;;;;;;;;;;6158024;23;20001;-87
2022/11/28 18:39:04;;;;;;;160.55;56.17;;;;;;;;;;6157898;23;20009;-81
2022/11/28 18:41:30;;;;;;;29.40;12.52;;;;;;;;;;6157585;23;20099;-84
2022/11/28 18:43:57;;;;;;;20.58;9.45;;;;;;;;;;6158143;23;19997;-83
2022/11/28 18:46:24;;;;;;;29.45;13.02;;;;;;;;;;6157863;23;20033;-84
2022/11/28 18:48:49;;;;;;;13.43;8.18;;;;;;;;;;6159409;23;20025;-84
2022/11/28 18:51:17;;;;;;;15.90;7.82;;;;;;;;;;6157559;23;20413;-82
2022/11/28 18:53:43;;;;;;;22.90;10.50;;;;;;;;;;6157673;23;20426;-81
2022/11/28 18:56:09;;;;;;;22.27;11.23;;;;;;;;;;6157676;23;20091;-81
2022/11/28 18:58:36;;;;;;;20.38;11.32;;;;;;;;;;6157868;23;20027;-83
2022/11/28 19:01:16;;;;;;;20.27;12.02;;;;;;;;;;6157324;23;20310;-84
2022/11/28 19:03:46;;;;;;;13.05;8.73;;;;;;;;;;6157745;23;20002;-81
2022/11/28 19:06:11;;;;;;;13.07;8.85;;;;;;;;;;6157458;23;20001;-83
2022/11/28 19:08:38;;;;;;;11.65;8.77;;;;;;;;;;6157278;23;20015;-83
2022/11/28 19:11:09;;;;;;;16.10;8.82;;;;;;;;;;6157377;23;20002;-82
2022/11/28 19:13:36;;;;;;;14.23;8.68;;;;;;;;;;6157430;23;20006;-81
2022/11/28 19:16:15;;;;;;;11.05;8.07;;;;;;;;;;6157345;23;20484;-80
2022/11/28 19:18:41;;;;;;;13.55;6.97;;;;;;;;;;6157078;23;20433;-80
2022/11/28 19:21:12;;;;;;;10.32;7.20;;;;;;;;;;6131056;23;20084;-81
2022/11/28 19:23:39;;;;;;;8.57;6.57;;;;;;;;;;6157531;23;20033;-82
2022/11/28 19:26:10;;;;;;;8.05;6.00;;;;;;;;;;6157085;23;20027;-82
2022/11/28 19:28:38;;;;;;;9.23;6.07;;;;;;;;;;6157496;23;20006;-82
2022/11/28 19:31:11;;;;;;;9.02;6.32;;;;;;;;;;6157397;23;20085;-80
2022/11/28 19:33:37;;;;;;;8.73;7.20;;;;;;;;;;6157843;23;20010;-83
2022/11/28 19:36:04;;;;;;;10.93;7.57;;;;;;;;;;6157379;23;20441;-80
2022/11/28 19:38:31;;;;;;;9.18;7.50;;;;;;;;;;6157095;23;20025;-79
2022/11/28 19:40:57;;;;;;;11.73;6.57;;;;;;;;;;6131505;23;20028;-79
2022/11/28 19:43:22;;;;;;;15.15;9.77;;;;;;;;;;6157517;23;20422;-80
2022/11/28 19:45:55;;;;;;;9.77;6.20;;;;;;;;;;6157501;23;20333;-82
2022/11/28 19:48:21;;;;;;;6.93;5.25;;;;;;;;;;6157211;23;20002;-81
2022/11/28 19:50:50;;;;;;;11.18;7.22;;;;;;;;;;6157982;23;20006;-82
2022/11/28 19:53:17;;;;;;;9.68;7.95;;;;;;;;;;6157094;23;20065;-81
2022/11/28 19:55:43;;;;;;;8.10;6.03;;;;;;;;;;6130777;23;20115;-83
2022/11/28 19:58:09;;;;;;;7.57;5.65;;;;;;;;;;6157042;23;20044;-82
2022/11/28 20:00:35;;;;;;;6.18;4.72;;;;;;;;;;6157694;23;20433;-94
2022/11/28 20:03:01;;;;;;;7.93;5.65;;;;;;;;;;6157947;23;20076;-94
2022/11/28 20:05:29;;;;;;;8.52;5.43;;;;;;;;;;6157259;23;20001;-89
2022/11/28 20:07:55;;;;;;;7.57;4.95;;;;;;;;;;6131502;23;20009;-92
2022/11/28 20:10:20;;;;;;;6.15;5.28;;;;;;;;;;6157980;23;20017;-87
2022/11/28 20:12:46;;;;;;;5.95;5.30;;;;;;;;;;6131254;23;20037;-91
2022/11/28 20:15:11;;;;;;;8.57;5.28;;;;;;;;;;6131904;23;20093;-86
2022/11/28 20:17:36;;;;;;;8.65;5.65;;;;;;;;;;6157743;23;20029;-85
2022/11/28 20:20:02;;;;;;;9.15;6.60;;;;;;;;;;6131029;23;20009;-82
2022/11/28 20:22:28;;;;;;;7.95;5.72;;;;;;;;;;6156906;23;20032;-84
2022/11/28 20:24:53;;;;;;;12.25;8.23;;;;;;;;;;6156857;23;20075;-83
2022/11/28 20:27:19;;;;;;;10.75;8.15;;;;;;;;;;6156798;23;20037;-81
2022/11/28 20:29:44;;;;;;;10.85;8.25;;;;;;;;;;6156586;23;20006;-84
2022/11/28 20:32:10;;;;;;;10.50;7.95;;;;;;;;;;6156833;23;20006;-81
2022/11/28 20:34:35;;;;;;;10.88;8.20;;;;;;;;;;6156959;23;20303;-83
2022/11/28 20:37:01;;;;;;;10.38;8.07;;;;;;;;;;6156600;23;20012;-82
2022/11/28 20:39:26;;;;;;;15.25;10.43;;;;;;;;;;6156578;23;20016;-83
2022/11/28 20:41:52;;;;;;;14.90;10.93;;;;;;;;;;6130454;23;20010;-82
2022/11/28 20:44:18;;;;;;;11.68;8.77;;;;;;;;;;6156638;23;20433;-81
2022/11/28 20:46:45;;;;;;;10.20;8.10;;;;;;;;;;6156897;23;20010;-84
2022/11/28 20:49:12;;;;;;;11.20;7.28;;;;;;;;;;6156479;23;20039;-81
2022/11/28 20:51:38;;;;;;;12.07;7.40;;;;;;;;;;6156850;23;20009;-80
2022/11/28 20:54:05;;;;;;;9.98;6.75;;;;;;;;;;6156728;23;20417;-81
2022/11/28 20:56:33;;;;;;;10.50;8.15;;;;;;;;;;6156350;23;20036;-81
2022/11/28 20:58:59;;;;;;;9.38;7.47;;;;;;;;;;6156460;23;20013;-80
2022/11/28 21:01:33;;;;;;;9.40;7.05;;;;;;;;;;6156471;23;20325;-79
2022/11/28 21:04:00;;;;;;;10.30;7.25;;;;;;;;;;6156427;23;20010;-81
2022/11/28 21:06:26;;;;;;;10.85;6.97;;;;;;;;;;6155867;23;20013;-79
2022/11/28 21:08:51;;;;;;;9.07;6.53;;;;;;;;;;6155561;23;20008;-82
2022/11/28 21:11:21;;;;;;;10.95;7.40;;;;;;;;;;6130001;23;20010;-80
2022/11/28 21:13:48;;;;;;;8.55;6.80;;;;;;;;;;6156591;23;20361;-83
2022/11/28 21:16:16;;;;;;;9.48;6.97;;;;;;;;;;6155873;23;20009;-83
2022/11/28 21:18:42;;;;;;;9.05;7.20;;;;;;;;;;6156209;23;19997;-82
2022/11/28 21:21:14;;;;;;;9.00;6.78;;;;;;;;;;6155981;23;20065;-79
2022/11/28 21:23:41;;;;;;;8.65;5.90;;;;;;;;;;6155954;23;20487;-82
2022/11/28 21:26:10;;;;;;;10.82;6.07;;;;;;;;;;6156522;23;20009;-83
2022/11/28 21:28:37;;;;;;;8.63;5.93;;;;;;;;;;6156326;23;20426;-83
2022/11/28 21:31:06;;;;;;;8.15;6.43;;;;;;;;;;6156430;23;20036;-83
2022/11/28 21:33:31;;;;;;;8.30;6.05;;;;;;;;;;6156281;23;20516;-80
2022/11/28 21:36:01;;;;;;;9.80;6.82;;;;;;;;;;6154568;23;20037;-84
2022/11/28 21:38:28;;;;;;;8.68;6.63;;;;;;;;;;6156155;23;20422;-83
2022/11/28 21:40:54;;;;;;;10.45;6.28;;;;;;;;;;6156381;23;20089;-84
2022/11/28 21:43:20;;;;;;;8.63;6.63;;;;;;;;;;6156201;23;20006;-84
2022/11/28 21:45:45;;;;;;;17.58;10.45;;;;;;;;;;6156031;23;20111;-84
2022/11/28 21:48:11;;;;;;;32.42;16.23;;;;;;;;;;6156324;23;19998;-82
2022/11/28 21:50:36;;;;;;;143.00;49.45;;;;;;;;;;6156240;23;20010;-81
2022/11/28 21:53:02;;;;;;;157.23;53.90;;;;;;;;;;6155984;23;20299;-81
2022/11/28 21:55:27;;;;;;;37.47;20.40;;;;;;;;;;6156308;23;20068;-81
2022/11/28 21:57:53;;;;;;;11.27;6.95;;;;;;;;;;6156051;23;20060;-83
2022/11/28 22:00:18;;;;;;;14.05;8.93;;;;;;;;;;6156899;23;20429;-81
2022/11/28 22:02:45;;;;;;;12.30;7.38;;;;;;;;;;6158112;23;20197;-80
2022/11/28 22:05:12;;;;;;;11.05;7.25;;;;;;;;;;6158395;23;20061;-80
2022/11/28 22:07:38;;;;;;;11.30;7.22;;;;;;;;;;6158007;23;20460;-81
2022/11/28 22:10:04;;;;;;;10.45;6.93;;;;;;;;;;6157943;23;20002;-81
2022/11/28 22:12:30;;;;;;;11.18;7.07;;;;;;;;;;6157852;23;20077;-81
2022/11/28 22:14:56;;;;;;;10.23;7.53;;;;;;;;;;6158191;23;20041;-82
2022/11/28 22:17:21;;;;;;;10.43;7.15;;;;;;;;;;6158217;23;20441;-80
2022/11/28 22:19:47;;;;;;;8.43;6.47;;;;;;;;;;6157861;23;20413;-78
2022/11/28 22:22:13;;;;;;;8.25;6.55;;;;;;;;;;6157805;23;20081;-80
2022/11/28 22:24:38;;;;;;;9.88;6.00;;;;;;;;;;6156432;23;20085;-78
2022/11/28 22:27:04;;;;;;;8.50;6.15;;;;;;;;;;6157798;23;20006;-80
2022/11/28 22:29:30;;;;;;;8.23;5.80;;;;;;;;;;6131815;23;20009;-81
2022/11/28 22:31:55;;;;;;;10.63;7.35;;;;;;;;;;6157951;23;20365;-80
2022/11/28 22:34:20;;;;;;;13.75;8.18;;;;;;;;;;6158023;23;20002;-80
2022/11/28 22:36:46;;;;;;;12.48;7.82;;;;;;;;;;6157717;23;20001;-80
2022/11/28 22:39:11;;;;;;;10.07;6.75;;;;;;;;;;6158575;23;20420;-80
2022/11/28 22:41:37;;;;;;;12.73;7.75;;;;;;;;;;6157954;23;20029;-80
2022/11/28 22:44:03;;;;;;;16.83;10.15;;;;;;;;;;6157925;23;19997;-80
2022/11/28 22:46:29;;;;;;;14.43;9.18;;;;;;;;;;6157715;23;20057;-82
2022/11/28 22:48:55;;;;;;;10.63;7.40;;;;;;;;;;6157938;23;20472;-79
